Ana Sayfa
METAR-TAF:

METAR-TAF

Havaalanları :

Washington, Pensilvanya, Amerika Birleşik Devletleri

Enlem: 40-08N, Boylam: 080-17W, yükseklik: 361 m

Güncel hava durumu gözlemi

Rapor saat 15:56 UTC de 43 dakika önce yapıldı.
Rüzgar batı/güneybatıdan 6 kt
Sıcaklık 25°C
Nem 74%
Basınç 1017 hPa
Görüş mesafesi: 16.1 km
2400 ft yükseklikte parçalı çok bulutlu
4400 ft yükseklikte çok bulutlu

METAR: KAFJ 211556Z AUTO 24006KT 10SM BKN024 OVC044 25/20 A3002 RMK AO2 SLP157 T02500200

Saat: 12:39 (16:39 UTC)


TAF: eksik

4.000'den fazla havaalanı için hava durumu gözlemleri ve tahminleri (METAR ve TAF raporları).

Kullanılabilir istasyonlar harita üzerinde sarı ve kırmızı noktalarla gösterilir.

İstasyonun adını görmek için fareyi noktanın üzerinde gezdirin.

Sonrasında hava gözlem ve tahminlerini görmek için tıklayın.

Haritayı değiştirmek için: yaklaştırmak için siyah artı işaretli yeşil düğmeye ve uzaklaştırmak için de eksi işaretli düğmeye hızla tıklayın; bitişik haritalar için yeşil okları kullanın.


METAR-TAF: